KLHQ

Fairfield County Airport

Lancaster, Ohio, USA
METAR KLHQ 151853Z AUTO 29015G22KT 10SM CLR 05/M04 A2981 RMK AO2 SLP096 T00501044
Observed Flight Rules
Feb-15 @ 18:53 UTC (12 minutes ago) Visual Flight Rules
Wind Visibility Clouds
290° at 15 knots
 Gusting to 22 knots
10 miles
  • Clear skies
Temperatures Readings
Current 5°C / 41°F
Dewpoint -4°C / 25°F
Humidity 53%
Altimeter 29.81" Hg
Pressure 1009.6 hPa
Elevation 260
METAR KLHQ 151853Z AUTO 29015G22KT 10SM CLR 05/M04 A2981 RMK AO2 SLP096 T00501044
Observed Flight Rules
Feb-15 @ 18:53 UTC
(12 minutes ago)
VFR
Wind Visibility
290° at 15 knots
 Gusting to 22 knots
10 miles
Clouds
  • Clear skies
Temperature Dewpoint
5°C / 41°F -4°C / 25°F
Humidity Altimeter Pressure
53% 29.81" Hg 1009.6 hPa